Time;durP1;ratioP1;P1;durP2;ratioP2;P2;SDS_P1;SDS_P2;PMS_P1;PMS_P2;Temp;Humidity;BMP_temperature;BMP_pressure;BME280_temperature;BME280_humidity;BME280_pressure;Samples;Min_cycle;Max_cycle;Signal;HPM_P1;HPM_P2
2022/11/02 00:00:20;;;;;;;;;;;19.90;55.80;;;;;;5069683;28;19909;-62
2022/11/02 00:02:45;;;;;;;;;;;19.80;55.70;;;;;;5052782;28;20004;-61
2022/11/02 00:05:11;;;;;;;;;;;19.80;55.70;;;;;;5053036;28;20330;-61
2022/11/02 00:07:37;;;;;;;;;;;19.70;55.90;;;;;;5053360;28;20338;-62
2022/11/02 00:10:02;;;;;;;;;;;19.80;55.80;;;;;;5033994;28;19968;-62
2022/11/02 00:12:28;;;;;;;;;;;19.80;55.70;;;;;;5034515;28;20561;-61
2022/11/02 00:14:53;;;;;;;;;;;19.80;55.70;;;;;;5052821;28;19913;-61
2022/11/02 00:17:19;;;;;;;;;;;19.80;55.70;;;;;;5052623;28;19909;-61
2022/11/02 00:19:44;;;;;;;;;;;19.70;55.40;;;;;;5052741;28;19909;-62
2022/11/02 00:22:09;;;;;;;;;;;19.70;55.40;;;;;;5052271;28;19964;-61
2022/11/02 00:24:35;;;;;;;;;;;19.70;55.80;;;;;;5068387;28;19916;-61
2022/11/02 00:27:00;;;;;;;;;;;19.70;55.50;;;;;;5051751;28;19909;-61
2022/11/02 00:29:26;;;;;;;;;;;19.70;55.70;;;;;;5052555;28;19909;-61
2022/11/02 00:31:51;;;;;;;;;;;19.70;55.50;;;;;;5052468;28;19908;-61
2022/11/02 00:34:17;;;;;;;;;;;19.60;55.40;;;;;;5052554;28;20008;-62
2022/11/02 00:36:42;;;;;;;;;;;19.60;55.40;;;;;;5052470;28;19913;-61
2022/11/02 00:39:08;;;;;;;;;;;19.60;55.50;;;;;;5065347;28;19908;-61
2022/11/02 00:41:33;;;;;;;;;;;19.60;55.30;;;;;;5071647;28;19908;-61
2022/11/02 00:43:59;;;;;;;;;;;19.60;55.60;;;;;;5072441;28;20015;-61
2022/11/02 00:46:24;;;;;;;;;;;19.60;55.40;;;;;;5072358;28;19923;-61
2022/11/02 00:48:50;;;;;;;;;;;19.60;55.40;;;;;;5072549;28;19913;-61
2022/11/02 00:51:15;;;;;;;;;;;19.60;55.30;;;;;;5056469;28;19999;-61
2022/11/02 00:53:40;;;;;;;;;;;19.60;55.20;;;;;;5052502;28;19916;-61
2022/11/02 00:56:06;;;;;;;;;;;19.60;55.10;;;;;;5051307;28;20055;-61
2022/11/02 00:58:31;;;;;;;;;;;19.60;55.10;;;;;;5052308;28;19962;-62
2022/11/02 01:00:57;;;;;;;;;;;19.60;55.30;;;;;;5052099;28;19915;-61
2022/11/02 01:03:22;;;;;;;;;;;19.60;55.40;;;;;;5052106;28;19962;-61
2022/11/02 01:05:48;;;;;;;;;;;19.50;55.20;;;;;;5052164;28;19916;-62
2022/11/02 01:08:13;;;;;;;;;;;19.50;55.50;;;;;;5057721;28;20010;-61
2022/11/02 01:10:39;;;;;;;;;;;19.50;55.20;;;;;;5071750;28;19938;-61
2022/11/02 01:13:04;;;;;;;;;;;19.50;55.30;;;;;;5071661;28;20349;-61
2022/11/02 01:15:30;;;;;;;;;;;19.50;55.10;;;;;;5072111;28;19908;-61
2022/11/02 01:17:55;;;;;;;;;;;19.60;55.30;;;;;;5072295;28;19920;-61
2022/11/02 01:20:20;;;;;;;;;;;19.60;54.80;;;;;;5072196;28;19908;-62
2022/11/02 01:22:46;;;;;;;;;;;19.60;54.90;;;;;;5075751;28;19951;-61
2022/11/02 01:25:11;;;;;;;;;;;19.60;54.80;;;;;;5075345;28;19909;-61
2022/11/02 01:27:37;;;;;;;;;;;19.60;54.70;;;;;;5075353;28;19908;-61
2022/11/02 01:30:03;;;;;;;;;;;19.60;54.90;;;;;;5066197;28;19978;-61
2022/11/02 01:32:29;;;;;;;;;;;19.50;54.80;;;;;;5056039;28;19909;-61
2022/11/02 01:34:55;;;;;;;;;;;19.50;55.00;;;;;;5055695;28;20067;-61
2022/11/02 01:37:20;;;;;;;;;;;19.50;54.80;;;;;;5055514;28;19940;-61
2022/11/02 01:39:46;;;;;;;;;;;19.50;55.10;;;;;;5073557;28;19916;-61
2022/11/02 01:42:21;;;;;;;;;;;19.50;54.60;;;;;;5056710;28;20364;-61
2022/11/02 01:44:46;;;;;;;;;;;19.50;54.80;;;;;;5057739;28;19924;-61
2022/11/02 01:47:13;;;;;;;;;;;19.60;54.70;;;;;;5075335;28;19916;-61
2022/11/02 01:49:40;;;;;;;;;;;19.60;54.70;;;;;;5057908;28;19908;-61
2022/11/02 01:52:07;;;;;;;;;;;19.60;54.70;;;;;;5040907;28;19938;-61
2022/11/02 01:54:38;;;;;;;;;;;19.70;54.40;;;;;;5057543;28;19908;-61
2022/11/02 01:57:05;;;;;;;;;;;19.70;54.50;;;;;;5074327;28;19935;-61
2022/11/02 01:59:35;;;;;;;;;;;19.70;54.50;;;;;;5057265;28;20268;-61
2022/11/02 02:02:02;;;;;;;;;;;19.60;54.70;;;;;;5075075;28;19912;-61
2022/11/02 02:04:27;;;;;;;;;;;19.50;54.60;;;;;;5057091;28;20346;-61
2022/11/02 02:06:53;;;;;;;;;;;19.50;54.60;;;;;;5075038;28;20403;-61
2022/11/02 02:09:19;;;;;;;;;;;19.50;54.60;;;;;;5057106;28;20013;-61
2022/11/02 02:11:44;;;;;;;;;;;19.50;54.60;;;;;;5074318;28;19909;-61
2022/11/02 02:14:12;;;;;;;;;;;19.40;54.70;;;;;;5074994;28;19951;-61
2022/11/02 02:16:37;;;;;;;;;;;19.40;54.80;;;;;;5056974;28;20069;-61
2022/11/02 02:19:05;;;;;;;;;;;19.40;54.80;;;;;;5067894;28;20398;-61
2022/11/02 02:21:41;;;;;;;;;;;19.40;54.70;;;;;;5070041;28;20011;-61
2022/11/02 02:24:25;;;;;;;;;;;19.40;54.60;;;;;;5054874;28;19913;-61
2022/11/02 02:26:58;;;;;;;;;;;19.50;54.60;;;;;;5053857;28;19909;-62
2022/11/02 02:29:47;;;;;;;;;;;19.50;54.60;;;;;;5070154;28;19955;-61
2022/11/02 02:32:32;;;;;;;;;;;19.50;54.60;;;;;;5048167;28;19923;-61
2022/11/02 02:35:10;;;;;;;;;;;19.60;55.30;;;;;;5054224;28;19913;-61
2022/11/02 02:37:38;;;;;;;;;;;19.60;54.20;;;;;;5069995;28;19909;-61
2022/11/02 02:40:10;;;;;;;;;;;19.60;54.40;;;;;;5053949;28;19912;-61
2022/11/02 02:42:37;;;;;;;;;;;19.60;54.60;;;;;;5069390;28;19956;-61
2022/11/02 02:45:08;;;;;;;;;;;19.60;54.50;;;;;;5069804;28;19909;-62
2022/11/02 02:47:34;;;;;;;;;;;19.60;54.40;;;;;;5069671;28;19912;-62
2022/11/02 02:50:19;;;;;;;;;;;19.60;54.50;;;;;;5054060;28;19909;-61
2022/11/02 02:52:44;;;;;;;;;;;19.60;54.50;;;;;;5054225;28;19913;-61
2022/11/02 02:55:13;;;;;;;;;;;19.60;54.60;;;;;;5053746;28;20376;-61
2022/11/02 02:57:39;;;;;;;;;;;19.50;54.60;;;;;;5069342;28;19923;-62
2022/11/02 03:00:04;;;;;;;;;;;19.50;54.60;;;;;;5054091;28;19909;-61
2022/11/02 03:02:31;;;;;;;;;;;19.60;54.70;;;;;;5069081;28;19921;-61
2022/11/02 03:04:56;;;;;;;;;;;19.50;54.60;;;;;;5054052;28;19958;-61
2022/11/02 03:07:23;;;;;;;;;;;19.60;54.60;;;;;;5053975;28;19909;-61
2022/11/02 03:09:49;;;;;;;;;;;19.60;54.60;;;;;;5072354;28;19948;-61
2022/11/02 03:12:15;;;;;;;;;;;19.60;54.60;;;;;;5038424;28;20011;-61
2022/11/02 03:14:52;;;;;;;;;;;19.60;54.70;;;;;;5073941;28;20423;-61
2022/11/02 03:17:18;;;;;;;;;;;19.60;54.50;;;;;;5073611;28;20283;-61
2022/11/02 03:19:47;;;;;;;;;;;19.60;54.70;;;;;;5055810;28;19970;-61
2022/11/02 03:22:19;;;;;;;;;;;19.60;54.50;;;;;;5073322;28;20368;-61
2022/11/02 03:25:20;;;;;;;;;;;19.60;54.30;;;;;;5073699;28;19908;-61
2022/11/02 03:27:45;;;;;;;;;;;19.60;54.40;;;;;;5030946;28;19991;-61
2022/11/02 03:30:14;;;;;;;;;;;19.60;54.60;;;;;;5064662;28;20403;-61
2022/11/02 03:32:41;;;;;;;;;;;19.60;54.60;;;;;;5055802;28;19915;-61
2022/11/02 03:35:10;;;;;;;;;;;19.60;54.70;;;;;;5055813;28;19977;-61
2022/11/02 03:38:02;;;;;;;;;;;19.60;54.60;;;;;;5055704;28;19909;-62
2022/11/02 03:40:31;;;;;;;;;;;19.60;54.60;;;;;;5049530;28;20177;-61
2022/11/02 03:42:57;;;;;;;;;;;19.60;54.70;;;;;;5067636;28;19913;-62
2022/11/02 03:45:23;;;;;;;;;;;19.60;54.60;;;;;;5068450;28;19920;-61
2022/11/02 03:47:50;;;;;;;;;;;19.70;54.50;;;;;;5068559;28;20260;-61
2022/11/02 03:50:17;;;;;;;;;;;19.60;54.40;;;;;;5053200;28;20376;-61
2022/11/02 03:52:43;;;;;;;;;;;19.60;54.70;;;;;;5053296;28;20000;-61
2022/11/02 03:55:19;;;;;;;;;;;19.60;54.50;;;;;;5068361;28;19952;-61
2022/11/02 03:57:45;;;;;;;;;;;19.60;54.50;;;;;;5067927;28;19909;-61
2022/11/02 04:00:12;;;;;;;;;;;19.50;54.50;;;;;;5052790;28;19916;-61
2022/11/02 04:02:37;;;;;;;;;;;19.60;54.70;;;;;;5053117;28;19912;-61
2022/11/02 04:05:03;;;;;;;;;;;19.60;54.70;;;;;;5053223;28;19913;-61
2022/11/02 04:08:19;;;;;;;;;;;19.60;54.60;;;;;;5053081;28;20385;-63
2022/11/02 04:10:14;;;;;;;;;;;19.60;54.60;;;;;;5052404;28;19909;-61
2022/11/02 04:15:24;;;;;;;;;;;19.50;54.60;;;;;;5065966;28;19961;-62
2022/11/02 04:20:33;;;;;;;;;;;19.50;54.60;;;;;;5052272;28;20331;-61
2022/11/02 04:25:42;;;;;;;;;;;19.60;54.60;;;;;;5052195;28;19963;-61
2022/11/02 04:28:08;;;;;;;;;;;19.60;54.50;;;;;;5052177;28;19939;-61
2022/11/02 04:30:33;;;;;;;;;;;19.50;54.60;;;;;;5052484;28;20375;-61
2022/11/02 04:35:43;;;;;;;;;;;19.50;54.60;;;;;;5052736;28;19939;-61
2022/11/02 04:41:40;;;;;;;;;;;19.50;54.60;;;;;;5071715;28;20421;-61
2022/11/02 04:43:38;;;;;;;;;;;19.50;54.60;;;;;;5072077;28;20288;-61
2022/11/02 04:46:03;;;;;;;;;;;19.50;54.60;;;;;;5071920;28;19935;-62
2022/11/02 04:48:29;;;;;;;;;;;19.50;54.50;;;;;;5054162;28;19912;-61
2022/11/02 04:50:54;;;;;;;;;;;19.50;54.60;;;;;;5072268;28;19923;-61
2022/11/02 04:53:20;;;;;;;;;;;19.50;54.60;;;;;;5037250;28;19915;-61
2022/11/02 04:55:45;;;;;;;;;;;19.50;54.50;;;;;;5074463;28;19908;-61
2022/11/02 04:58:11;;;;;;;;;;;19.50;54.60;;;;;;5075776;28;19909;-61
2022/11/02 05:00:36;;;;;;;;;;;19.50;54.60;;;;;;5076145;28;19915;-61
2022/11/02 05:03:01;;;;;;;;;;;19.50;54.60;;;;;;5076090;28;19913;-61
2022/11/02 05:05:27;;;;;;;;;;;19.50;54.60;;;;;;5076340;28;19908;-61
2022/11/02 05:07:52;;;;;;;;;;;19.50;54.60;;;;;;5074663;28;19931;-61
2022/11/02 05:10:18;;;;;;;;;;;19.50;54.60;;;;;;5075599;28;19971;-62
2022/11/02 05:12:43;;;;;;;;;;;19.50;54.60;;;;;;5075499;28;19978;-62
2022/11/02 05:15:09;;;;;;;;;;;19.50;54.60;;;;;;5075961;28;19916;-61
2022/11/02 05:17:34;;;;;;;;;;;19.50;54.60;;;;;;5057867;28;19958;-61
2022/11/02 05:20:00;;;;;;;;;;;19.50;54.60;;;;;;5075827;28;19909;-61
2022/11/02 05:22:25;;;;;;;;;;;19.50;54.60;;;;;;5075658;28;19943;-61
2022/11/02 05:24:51;;;;;;;;;;;19.50;54.60;;;;;;5075966;28;19948;-61
2022/11/02 05:27:16;;;;;;;;;;;19.50;54.60;;;;;;5090298;28;20288;-61
2022/11/02 05:29:42;;;;;;;;;;;19.50;54.60;;;;;;5075809;28;19908;-61
2022/11/02 05:32:07;;;;;;;;;;;19.50;54.60;;;;;;5075626;28;20337;-61
2022/11/02 05:34:32;;;;;;;;;;;19.50;54.60;;;;;;5075678;28;20393;-61
2022/11/02 05:36:58;;;;;;;;;;;19.50;54.50;;;;;;5075477;28;19987;-61
2022/11/02 05:39:23;;;;;;;;;;;19.50;54.50;;;;;;5068966;28;19914;-61
2022/11/02 05:41:49;;;;;;;;;;;19.50;54.60;;;;;;5054514;28;20020;-61
2022/11/02 05:44:14;;;;;;;;;;;19.50;54.60;;;;;;5055491;28;19913;-61
2022/11/02 05:46:41;;;;;;;;;;;19.50;54.60;;;;;;5055622;28;19916;-62
2022/11/02 05:49:07;;;;;;;;;;;19.50;54.60;;;;;;5055429;28;19955;-61
2022/11/02 05:51:32;;;;;;;;;;;19.50;54.60;;;;;;5055215;28;19909;-61
2022/11/02 05:53:57;;;;;;;;;;;19.50;54.60;;;;;;5055311;28;19909;-61
2022/11/02 05:56:23;;;;;;;;;;;19.50;54.60;;;;;;5053088;28;19963;-61
2022/11/02 05:58:48;;;;;;;;;;;19.50;54.60;;;;;;5055204;28;19916;-61
2022/11/02 06:01:14;;;;;;;;;;;19.50;54.40;;;;;;5054955;28;20360;-61
2022/11/02 06:03:39;;;;;;;;;;;19.50;54.50;;;;;;5055003;28;20372;-61
2022/11/02 06:06:06;;;;;;;;;;;19.50;54.50;;;;;;5054499;28;20329;-61
2022/11/02 06:08:32;;;;;;;;;;;19.50;54.40;;;;;;5062772;28;19999;-61
2022/11/02 06:10:58;;;;;;;;;;;19.50;54.60;;;;;;5074288;28;19912;-61
2022/11/02 06:13:23;;;;;;;;;;;19.50;54.60;;;;;;5075191;28;19948;-61
2022/11/02 06:15:49;;;;;;;;;;;19.50;54.50;;;;;;5074757;28;19920;-62
2022/11/02 06:18:14;;;;;;;;;;;19.50;54.60;;;;;;5074393;28;19915;-61
2022/11/02 06:20:40;;;;;;;;;;;19.50;54.60;;;;;;5053247;28;19963;-62
2022/11/02 06:23:05;;;;;;;;;;;19.50;54.60;;;;;;5054541;28;19912;-61
2022/11/02 06:25:31;;;;;;;;;;;19.50;54.60;;;;;;5069715;28;19909;-62
2022/11/02 06:27:56;;;;;;;;;;;19.50;54.60;;;;;;5054268;28;19909;-61
2022/11/02 06:30:22;;;;;;;;;;;19.40;54.50;;;;;;5054494;28;19909;-61
2022/11/02 06:32:48;;;;;;;;;;;19.40;54.50;;;;;;5053400;28;19991;-61
2022/11/02 06:35:14;;;;;;;;;;;19.40;54.50;;;;;;5069877;28;19920;-61
2022/11/02 06:37:39;;;;;;;;;;;19.40;54.50;;;;;;5053608;28;19909;-61
2022/11/02 06:40:05;;;;;;;;;;;19.40;54.50;;;;;;5073904;28;19916;-61
2022/11/02 06:42:30;;;;;;;;;;;19.40;54.50;;;;;;5073748;28;19912;-61
2022/11/02 06:45:01;;;;;;;;;;;19.40;54.50;;;;;;5074396;28;19915;-61
2022/11/02 06:47:30;;;;;;;;;;;19.50;54.60;;;;;;5074206;28;20003;-61
2022/11/02 06:49:55;;;;;;;;;;;19.50;54.60;;;;;;5074221;28;19943;-61
2022/11/02 06:52:21;;;;;;;;;;;19.50;54.60;;;;;;5074021;28;19948;-61
2022/11/02 06:54:46;;;;;;;;;;;19.50;54.60;;;;;;5056257;28;19908;-61
2022/11/02 06:57:12;;;;;;;;;;;19.50;54.60;;;;;;5072907;28;19957;-61
2022/11/02 06:59:37;;;;;;;;;;;19.40;54.50;;;;;;5073980;28;19909;-61
2022/11/02 07:02:03;;;;;;;;;;;19.40;54.50;;;;;;5073745;28;19909;-61
2022/11/02 07:04:28;;;;;;;;;;;19.40;54.50;;;;;;5073768;28;19920;-61
2022/11/02 07:06:53;;;;;;;;;;;19.40;54.80;;;;;;5055700;28;19923;-61
2022/11/02 07:09:19;;;;;;;;;;;19.30;54.70;;;;;;5061463;28;20360;-61
2022/11/02 07:11:44;;;;;;;;;;;19.40;54.80;;;;;;5052919;28;20430;-61
2022/11/02 07:14:10;;;;;;;;;;;19.40;54.90;;;;;;5052360;28;20361;-61
2022/11/02 07:16:35;;;;;;;;;;;19.40;54.90;;;;;;5053438;28;20005;-61
2022/11/02 07:19:01;;;;;;;;;;;19.40;54.90;;;;;;5053596;28;19971;-62
2022/11/02 07:21:27;;;;;;;;;;;19.40;54.80;;;;;;5053246;28;19920;-62
2022/11/02 07:23:52;;;;;;;;;;;19.40;54.80;;;;;;5053810;28;19920;-61
2022/11/02 07:26:18;;;;;;;;;;;19.40;54.70;;;;;;5052494;28;19920;-61
2022/11/02 07:28:44;;;;;;;;;;;19.40;54.70;;;;;;5068751;28;19952;-61
2022/11/02 07:31:09;;;;;;;;;;;19.40;54.60;;;;;;5053285;28;19951;-61
2022/11/02 07:33:35;;;;;;;;;;;19.40;54.70;;;;;;5053588;28;20378;-61
2022/11/02 07:36:01;;;;;;;;;;;19.40;54.70;;;;;;5051724;28;19948;-61
2022/11/02 07:38:26;;;;;;;;;;;19.40;54.70;;;;;;5060457;28;20372;-61
2022/11/02 07:40:52;;;;;;;;;;;19.40;54.80;;;;;;5053778;28;19909;-61
2022/11/02 07:43:17;;;;;;;;;;;19.30;54.80;;;;;;5052553;28;20083;-61
2022/11/02 07:45:43;;;;;;;;;;;19.40;54.80;;;;;;5053022;28;19920;-61
2022/11/02 07:48:08;;;;;;;;;;;19.40;54.70;;;;;;5052981;28;19909;-61
2022/11/02 07:50:34;;;;;;;;;;;19.50;54.60;;;;;;5052722;28;20360;-61
2022/11/02 07:52:59;;;;;;;;;;;19.50;54.60;;;;;;5053240;28;20396;-61
2022/11/02 07:55:26;;;;;;;;;;;19.50;54.60;;;;;;5052507;28;19915;-62
2022/11/02 07:57:55;;;;;;;;;;;19.50;54.60;;;;;;5052475;28;20019;-61
2022/11/02 08:00:21;;;;;;;;;;;19.50;54.60;;;;;;5068258;28;19983;-61
2022/11/02 08:02:46;;;;;;;;;;;19.50;55.20;;;;;;5052585;28;19912;-61
2022/11/02 08:05:11;;;;;;;;;;;19.50;54.60;;;;;;5052663;28;19908;-61
2022/11/02 08:07:37;;;;;;;;;;;19.50;54.60;;;;;;5052965;28;19909;-61
2022/11/02 08:10:02;;;;;;;;;;;19.50;54.60;;;;;;5052592;28;19908;-61
2022/11/02 08:12:28;;;;;;;;;;;19.50;54.60;;;;;;5052173;28;19916;-61
2022/11/02 08:14:53;;;;;;;;;;;19.50;54.60;;;;;;5034803;28;20367;-61
2022/11/02 08:17:20;;;;;;;;;;;19.50;54.60;;;;;;5052876;28;19958;-61
2022/11/02 08:19:45;;;;;;;;;;;19.50;54.60;;;;;;5052754;28;20004;-61
2022/11/02 08:22:11;;;;;;;;;;;19.50;54.60;;;;;;5052270;28;20065;-61
2022/11/02 08:24:36;;;;;;;;;;;19.50;54.60;;;;;;5052899;28;19909;-61
2022/11/02 08:27:02;;;;;;;;;;;19.50;54.60;;;;;;5051798;28;19909;-61
2022/11/02 08:29:27;;;;;;;;;;;19.50;54.60;;;;;;5052007;28;20288;-61
2022/11/02 08:31:53;;;;;;;;;;;19.50;54.60;;;;;;5052278;28;19916;-61
2022/11/02 08:34:18;;;;;;;;;;;19.50;54.70;;;;;;5052463;28;19909;-61
2022/11/02 08:36:44;;;;;;;;;;;19.50;54.60;;;;;;5052343;28;20009;-61
2022/11/02 08:39:09;;;;;;;;;;;19.50;54.60;;;;;;5065463;28;20367;-61
2022/11/02 08:41:34;;;;;;;;;;;19.50;54.60;;;;;;5071343;28;20477;-61
2022/11/02 08:44:00;;;;;;;;;;;19.50;54.60;;;;;;5054425;28;20391;-61
2022/11/02 08:46:25;;;;;;;;;;;19.50;54.60;;;;;;5072006;28;19915;-61
2022/11/02 08:48:51;;;;;;;;;;;19.50;54.60;;;;;;5072577;28;19919;-62
2022/11/02 08:51:16;;;;;;;;;;;19.50;54.60;;;;;;5072037;28;19908;-61
2022/11/02 08:53:41;;;;;;;;;;;19.50;54.60;;;;;;5072439;28;20342;-61
2022/11/02 08:56:07;;;;;;;;;;;19.50;54.60;;;;;;5071270;28;20275;-61
2022/11/02 08:58:32;;;;;;;;;;;19.50;54.60;;;;;;5054251;28;20341;-61
2022/11/02 09:00:58;;;;;;;;;;;19.50;54.60;;;;;;5072385;28;19915;-61
2022/11/02 09:03:23;;;;;;;;;;;19.50;54.60;;;;;;5072055;28;20003;-61
2022/11/02 09:05:49;;;;;;;;;;;19.50;54.60;;;;;;5072075;28;19908;-61
2022/11/02 09:08:18;;;;;;;;;;;19.50;54.60;;;;;;5070724;28;19931;-61
2022/11/02 09:10:43;;;;;;;;;;;19.50;54.60;;;;;;5071657;28;19909;-61
2022/11/02 09:13:10;;;;;;;;;;;19.50;54.60;;;;;;5071668;28;19916;-61
2022/11/02 09:15:36;;;;;;;;;;;19.50;54.60;;;;;;5072670;28;19909;-61
2022/11/02 09:18:01;;;;;;;;;;;19.50;54.60;;;;;;5072286;28;19915;-61
2022/11/02 09:20:27;;;;;;;;;;;19.50;54.60;;;;;;5071876;28;19990;-61
2022/11/02 09:22:52;;;;;;;;;;;19.50;54.60;;;;;;5071939;28;19915;-61
2022/11/02 09:25:18;;;;;;;;;;;19.50;54.60;;;;;;5053570;28;20271;-61
2022/11/02 09:27:43;;;;;;;;;;;19.50;54.60;;;;;;5071613;28;20011;-61
2022/11/02 09:30:09;;;;;;;;;;;19.50;54.60;;;;;;5072095;28;19908;-61
2022/11/02 09:32:35;;;;;;;;;;;19.40;54.50;;;;;;5072113;28;19908;-61
2022/11/02 09:35:04;;;;;;;;;;;19.40;54.60;;;;;;5071979;28;19908;-61
2022/11/02 09:37:30;;;;;;;;;;;19.40;54.50;;;;;;5072231;28;19980;-61
2022/11/02 09:39:56;;;;;;;;;;;19.40;54.50;;;;;;5060787;28;19978;-61
2022/11/02 09:42:22;;;;;;;;;;;19.50;54.60;;;;;;5052845;28;20410;-61
2022/11/02 09:44:51;;;;;;;;;;;19.50;54.60;;;;;;5071020;28;19913;-61
2022/11/02 09:47:16;;;;;;;;;;;19.50;54.60;;;;;;5055424;28;20323;-61
2022/11/02 09:49:42;;;;;;;;;;;19.50;54.60;;;;;;5070785;28;19909;-62
2022/11/02 09:52:08;;;;;;;;;;;19.40;54.50;;;;;;5054820;28;19909;-62
2022/11/02 09:54:34;;;;;;;;;;;19.40;54.50;;;;;;5070623;28;19913;-61
2022/11/02 09:57:03;;;;;;;;;;;19.40;54.50;;;;;;5054327;28;19916;-61
2022/11/02 09:59:28;;;;;;;;;;;19.40;54.50;;;;;;5055103;28;20434;-61
2022/11/02 10:02:11;;;;;;;;;;;19.50;54.60;;;;;;5054809;28;19916;-61
2022/11/02 10:04:36;;;;;;;;;;;19.40;54.50;;;;;;5070560;28;19913;-61
2022/11/02 10:07:20;;;;;;;;;;;19.40;54.50;;;;;;5054901;28;20384;-61
2022/11/02 10:09:46;;;;;;;;;;;19.40;54.50;;;;;;5054938;28;20360;-61
2022/11/02 10:12:13;;;;;;;;;;;19.40;54.50;;;;;;5073832;28;19920;-61
2022/11/02 10:14:41;;;;;;;;;;;19.40;54.50;;;;;;5074926;28;19913;-61
2022/11/02 10:17:10;;;;;;;;;;;19.40;54.50;;;;;;5090142;28;20395;-63
2022/11/02 10:19:37;;;;;;;;;;;19.40;54.50;;;;;;5078809;28;19909;-61
2022/11/02 10:22:03;;;;;;;;;;;19.40;54.50;;;;;;5069849;28;20419;-61
2022/11/02 10:24:28;;;;;;;;;;;19.50;54.60;;;;;;5054809;28;19940;-61
2022/11/02 10:27:00;;;;;;;;;;;19.40;54.50;;;;;;5053504;28;19913;-62
2022/11/02 10:29:38;;;;;;;;;;;19.40;54.50;;;;;;5054819;28;20336;-62
2022/11/02 10:32:04;;;;;;;;;;;19.40;54.50;;;;;;5069817;28;19913;-62
2022/11/02 10:34:30;;;;;;;;;;;19.50;54.60;;;;;;5054632;28;19909;-61
2022/11/02 10:37:14;;;;;;;;;;;19.40;54.50;;;;;;5054392;28;19995;-62
2022/11/02 10:39:58;;;;;;;;;;;19.50;54.60;;;;;;5071664;28;20348;-62
2022/11/02 10:42:32;;;;;;;;;;;19.50;54.60;;;;;;5073926;28;19919;-62
2022/11/02 10:45:15;;;;;;;;;;;19.50;54.60;;;;;;5074172;28;19995;-62
2022/11/02 10:47:43;;;;;;;;;;;19.50;54.60;;;;;;5056161;28;20410;-61
2022/11/02 10:50:08;;;;;;;;;;;19.50;54.60;;;;;;5074479;28;20347;-61
2022/11/02 10:52:37;;;;;;;;;;;19.50;54.60;;;;;;5073682;28;20012;-61
2022/11/02 10:55:03;;;;;;;;;;;19.50;54.60;;;;;;5073560;28;19909;-61
2022/11/02 10:57:28;;;;;;;;;;;19.50;54.60;;;;;;5073882;28;19913;-61
2022/11/02 11:00:12;;;;;;;;;;;19.50;54.60;;;;;;5074163;28;19919;-61
2022/11/02 11:02:38;;;;;;;;;;;19.50;54.60;;;;;;5073849;28;20328;-61
2022/11/02 11:05:10;;;;;;;;;;;19.50;54.60;;;;;;5073809;28;19918;-61
2022/11/02 11:07:35;;;;;;;;;;;19.60;54.70;;;;;;5054721;28;19908;-61
2022/11/02 11:10:01;;;;;;;;;;;19.60;54.70;;;;;;5073461;28;19912;-61
2022/11/02 11:12:33;;;;;;;;;;;19.50;54.60;;;;;;5073771;28;19908;-61
2022/11/02 11:14:59;;;;;;;;;;;19.50;54.60;;;;;;5055897;28;19916;-61
2022/11/02 11:17:28;;;;;;;;;;;19.50;54.60;;;;;;5073785;28;19912;-62
2022/11/02 11:19:54;;;;;;;;;;;19.50;54.60;;;;;;5073645;28;19909;-61
2022/11/02 11:22:26;;;;;;;;;;;19.50;54.60;;;;;;5073139;28;19924;-61
2022/11/02 11:24:52;;;;;;;;;;;19.50;54.60;;;;;;5073633;28;19908;-61
2022/11/02 11:27:18;;;;;;;;;;;19.50;54.90;;;;;;5054671;28;19908;-61
2022/11/02 11:29:46;;;;;;;;;;;19.50;54.90;;;;;;5073649;28;19916;-61
2022/11/02 11:32:15;;;;;;;;;;;19.50;55.00;;;;;;5073259;28;19957;-61
2022/11/02 11:34:41;;;;;;;;;;;19.50;54.90;;;;;;5073744;28;20345;-61
2022/11/02 11:37:10;;;;;;;;;;;19.50;54.90;;;;;;5055189;28;19915;-61
2022/11/02 11:39:36;;;;;;;;;;;19.50;55.00;;;;;;5051885;28;19915;-61
2022/11/02 11:42:02;;;;;;;;;;;19.40;55.10;;;;;;5052263;28;19915;-62
2022/11/02 11:44:27;;;;;;;;;;;19.40;55.10;;;;;;5053234;28;19916;-62
2022/11/02 11:46:54;;;;;;;;;;;19.50;55.00;;;;;;5052885;28;19909;-61
2022/11/02 11:49:26;;;;;;;;;;;19.50;55.00;;;;;;5052986;28;19995;-61
2022/11/02 11:51:52;;;;;;;;;;;19.50;55.00;;;;;;5053175;28;20327;-62
2022/11/02 11:54:21;;;;;;;;;;;19.50;54.90;;;;;;5051646;28;19999;-61
2022/11/02 11:56:47;;;;;;;;;;;19.50;55.00;;;;;;5052152;28;19909;-61
2022/11/02 11:59:20;;;;;;;;;;;19.50;55.00;;;;;;5053043;28;19963;-61
2022/11/02 12:01:45;;;;;;;;;;;19.50;55.00;;;;;;5052884;28;19909;-61
2022/11/02 12:04:11;;;;;;;;;;;19.50;55.00;;;;;;5067763;28;20003;-61
2022/11/02 12:06:47;;;;;;;;;;;19.50;54.90;;;;;;5052796;28;19909;-62
2022/11/02 12:09:13;;;;;;;;;;;19.50;54.80;;;;;;5066497;28;20426;-62
2022/11/02 12:11:48;;;;;;;;;;;19.50;54.90;;;;;;5087548;28;19908;-62
2022/11/02 12:14:23;;;;;;;;;;;19.50;55.10;;;;;;5072593;28;19909;-62
2022/11/02 12:16:51;;;;;;;;;;;19.50;55.20;;;;;;5072510;28;19962;-62
2022/11/02 12:19:35;;;;;;;;;;;19.40;55.30;;;;;;5072555;28;19909;-61
2022/11/02 12:22:01;;;;;;;;;;;19.40;55.20;;;;;;5072216;28;19960;-61
2022/11/02 12:24:35;;;;;;;;;;;19.40;55.40;;;;;;5071913;28;22351;-61
2022/11/02 12:27:04;;;;;;;;;;;19.40;55.40;;;;;;5053806;28;19966;-61
2022/11/02 12:29:35;;;;;;;;;;;19.40;55.40;;;;;;5051111;28;19912;-61
2022/11/02 12:32:11;;;;;;;;;;;19.40;55.40;;;;;;5052425;28;19909;-61
2022/11/02 12:34:46;;;;;;;;;;;19.40;55.40;;;;;;5067801;28;20300;-61
2022/11/02 12:37:18;;;;;;;;;;;19.40;55.40;;;;;;5052519;28;19913;-62
2022/11/02 12:39:52;;;;;;;;;;;19.50;55.30;;;;;;5070051;28;19909;-61
2022/11/02 12:42:24;;;;;;;;;;;19.50;55.10;;;;;;5071506;28;19913;-61
2022/11/02 12:44:53;;;;;;;;;;;19.50;55.10;;;;;;5072341;28;19915;-61
2022/11/02 12:47:25;;;;;;;;;;;19.50;55.10;;;;;;5054028;28;20008;-61
2022/11/02 12:49:59;;;;;;;;;;;19.60;55.10;;;;;;5072736;28;20410;-61
2022/11/02 12:52:24;;;;;;;;;;;19.60;55.10;;;;;;5054427;28;19919;-61
2022/11/02 12:54:56;;;;;;;;;;;19.60;55.20;;;;;;5072369;28;19991;-61
2022/11/02 12:57:22;;;;;;;;;;;19.60;55.30;;;;;;5053555;28;19909;-61
2022/11/02 12:59:53;;;;;;;;;;;19.60;55.40;;;;;;5054681;28;19944;-61
2022/11/02 13:02:30;;;;;;;;;;;19.50;55.30;;;;;;5078884;28;20399;-61
2022/11/02 13:04:57;;;;;;;;;;;19.50;55.40;;;;;;5054442;28;19909;-61
2022/11/02 13:07:39;;;;;;;;;;;19.50;55.40;;;;;;5054127;28;19909;-61
2022/11/02 13:10:05;;;;;;;;;;;19.50;55.40;;;;;;5051835;28;20386;-63
2022/11/02 13:12:31;;;;;;;;;;;19.60;55.30;;;;;;5051722;28;19963;-61
2022/11/02 13:14:56;;;;;;;;;;;19.60;55.20;;;;;;5052136;28;19909;-61
2022/11/02 13:17:24;;;;;;;;;;;19.50;55.20;;;;;;5055674;28;19996;-61
2022/11/02 13:19:53;;;;;;;;;;;19.50;55.30;;;;;;5071412;28;19920;-61
2022/11/02 13:22:19;;;;;;;;;;;19.50;55.30;;;;;;5055374;28;20380;-62
2022/11/02 13:24:51;;;;;;;;;;;19.50;55.40;;;;;;5055905;28;19916;-62
2022/11/02 13:27:35;;;;;;;;;;;19.50;55.40;;;;;;5070644;28;19909;-61
2022/11/02 13:30:01;;;;;;;;;;;19.50;55.40;;;;;;5071209;28;19970;-61
2022/11/02 13:32:30;;;;;;;;;;;19.50;56.10;;;;;;5056008;28;19916;-61
2022/11/02 13:34:55;;;;;;;;;;;19.50;55.40;;;;;;5055725;28;20050;-61
2022/11/02 13:37:26;;;;;;;;;;;19.50;55.50;;;;;;5055473;28;20429;-61
2022/11/02 13:39:56;;;;;;;;;;;19.50;55.40;;;;;;5063978;28;19915;-61
2022/11/02 13:42:37;;;;;;;;;;;19.50;55.40;;;;;;5054566;28;20391;-61
2022/11/02 13:45:06;;;;;;;;;;;19.50;55.50;;;;;;5055709;28;20373;-61
2022/11/02 13:47:31;;;;;;;;;;;19.50;55.50;;;;;;5055492;28;19909;-62
2022/11/02 13:49:57;;;;;;;;;;;19.50;55.50;;;;;;5055360;28;20384;-62
2022/11/02 13:52:25;;;;;;;;;;;19.40;55.50;;;;;;5055310;28;20356;-61
2022/11/02 13:54:52;;;;;;;;;;;19.40;55.60;;;;;;5055390;28;19909;-61
2022/11/02 13:57:35;;;;;;;;;;;19.40;55.70;;;;;;5069759;28;20058;-61
2022/11/02 14:00:01;;;;;;;;;;;19.40;55.70;;;;;;5055021;28;19916;-62
2022/11/02 14:02:27;;;;;;;;;;;19.40;55.70;;;;;;5055232;28;19913;-61
2022/11/02 14:04:53;;;;;;;;;;;19.40;55.70;;;;;;5070651;28;19959;-61
2022/11/02 14:07:28;;;;;;;;;;;19.40;55.60;;;;;;5054928;28;19909;-61
2022/11/02 14:09:57;;;;;;;;;;;19.50;55.70;;;;;;5074238;28;19985;-61
2022/11/02 14:12:23;;;;;;;;;;;19.50;55.50;;;;;;5074688;28;20281;-61
2022/11/02 14:15:07;;;;;;;;;;;19.50;55.50;;;;;;5075368;28;19919;-61
2022/11/02 14:17:53;;;;;;;;;;;19.50;55.50;;;;;;5074818;28;19991;-61
2022/11/02 14:20:32;;;;;;;;;;;19.50;55.70;;;;;;5074528;28;19909;-62
2022/11/02 14:23:17;;;;;;;;;;;19.50;55.70;;;;;;5074823;28;20368;-61
2022/11/02 14:25:46;;;;;;;;;;;19.50;55.70;;;;;;5052448;28;20391;-61
2022/11/02 14:28:18;;;;;;;;;;;19.50;55.70;;;;;;5054051;28;19915;-61
2022/11/02 14:30:44;;;;;;;;;;;19.50;55.70;;;;;;5054562;28;20380;-61
2022/11/02 14:33:13;;;;;;;;;;;19.50;55.70;;;;;;5054830;28;19909;-62